createdAt,value
2018-07-19T00:01:06.731Z,20.50
2018-07-19T00:06:02.403Z,20.40
2018-07-19T00:10:57.000Z,20.30
2018-07-19T00:15:51.807Z,20.30
2018-07-19T00:20:46.495Z,20.20
2018-07-19T00:25:42.775Z,20.20
2018-07-19T00:30:37.727Z,20.10
2018-07-19T00:40:27.443Z,20.30
2018-07-19T00:45:22.592Z,20.30
2018-07-19T00:50:17.491Z,20.40
2018-07-19T00:55:12.468Z,20.50
2018-07-19T01:00:08.300Z,20.50
2018-07-19T01:10:05.980Z,20.50
2018-07-19T01:15:02.908Z,20.40
2018-07-19T01:19:57.892Z,20.30
2018-07-19T01:24:54.017Z,20.30
2018-07-19T01:29:48.962Z,20.20
2018-07-19T01:34:44.927Z,20.10
2018-07-19T01:39:40.193Z,20.00
2018-07-19T01:44:35.022Z,19.90
2018-07-19T01:49:29.628Z,19.80
2018-07-19T01:54:24.507Z,19.70
2018-07-19T01:59:19.934Z,19.60
2018-07-19T02:09:09.481Z,19.40
2018-07-19T02:14:04.420Z,19.30
2018-07-19T02:18:59.146Z,19.20
2018-07-19T02:23:54.014Z,19.10
2018-07-19T02:28:48.884Z,19.00
2018-07-19T02:33:43.852Z,18.90
2018-07-19T02:38:38.380Z,18.90
2018-07-19T02:43:33.369Z,18.80
2018-07-19T02:48:27.878Z,18.70
2018-07-19T02:53:22.987Z,18.70
2018-07-19T02:58:17.635Z,18.60
2018-07-19T03:03:13.066Z,18.50
2018-07-19T03:08:08.865Z,18.50
2018-07-19T03:17:58.726Z,18.40
2018-07-19T03:22:53.598Z,18.30
2018-07-19T03:27:51.365Z,18.30
2018-07-19T03:32:46.438Z,18.20
2018-07-19T03:37:40.939Z,18.20
2018-07-19T03:42:35.700Z,18.20
2018-07-19T03:47:30.296Z,18.20
2018-07-19T03:52:26.867Z,18.20
2018-07-19T04:02:16.994Z,18.30
2018-07-19T04:07:11.795Z,18.40
2018-07-19T04:12:12.765Z,18.70
2018-07-19T04:17:09.765Z,18.70
2018-07-19T04:27:07.387Z,18.70
2018-07-19T04:32:04.613Z,18.90
2018-07-19T04:36:59.640Z,19.30
2018-07-19T04:41:54.546Z,20.20
2018-07-19T04:46:53.905Z,21.80
2018-07-19T04:51:49.263Z,23.20
2018-07-19T04:56:44.030Z,24.30
2018-07-19T05:01:39.767Z,23.90
2018-07-19T05:06:34.163Z,24.90
2018-07-19T05:11:29.354Z,26.00
2018-07-19T05:16:25.558Z,27.00
2018-07-19T05:21:21.218Z,26.80
2018-07-19T05:26:16.315Z,25.80
2018-07-19T05:36:08.123Z,26.00
2018-07-19T05:41:07.258Z,26.10
2018-07-19T05:46:02.549Z,25.60
2018-07-19T05:50:58.254Z,25.20
2018-07-19T05:55:52.939Z,26.20
2018-07-19T06:00:47.956Z,28.70
2018-07-19T06:05:43.149Z,31.00
2018-07-19T06:10:38.604Z,32.70
2018-07-19T06:15:33.720Z,33.50
2018-07-19T06:20:30.078Z,33.30
2018-07-19T06:25:27.604Z,35.00
2018-07-19T06:30:22.741Z,34.20
2018-07-19T06:35:18.740Z,35.50
2018-07-19T06:40:17.049Z,37.20
2018-07-19T06:45:13.797Z,37.10
2018-07-19T06:50:09.558Z,36.60
2018-07-19T06:55:07.889Z,35.30
2018-07-19T07:00:04.734Z,34.40
2018-07-19T07:04:59.276Z,33.10
2018-07-19T07:09:55.698Z,30.80
2018-07-19T07:19:45.091Z,30.70
2018-07-19T07:24:40.238Z,32.80
2018-07-19T07:29:36.281Z,34.50
2018-07-19T07:34:31.242Z,33.50
2018-07-19T07:39:26.468Z,32.30
2018-07-19T07:44:21.379Z,31.40
2018-07-19T07:49:16.735Z,31.00
2018-07-19T07:54:14.231Z,30.40
2018-07-19T07:59:09.206Z,30.20
2018-07-19T08:04:04.824Z,30.80
2018-07-19T08:08:59.396Z,33.30
2018-07-19T08:13:55.317Z,35.60
2018-07-19T08:18:50.215Z,37.00
2018-07-19T08:23:44.968Z,37.60
2018-07-19T08:28:39.796Z,38.10
2018-07-19T08:33:35.429Z,39.10
2018-07-19T08:38:31.199Z,39.30
2018-07-19T08:43:25.738Z,40.30
2018-07-19T08:48:20.714Z,41.40
2018-07-19T08:53:15.308Z,39.20
2018-07-19T08:58:17.455Z,38.40
2018-07-19T09:03:11.958Z,38.20
2018-07-19T09:08:07.159Z,39.30
2018-07-19T09:13:03.374Z,36.80
2018-07-19T09:17:58.578Z,36.80
2018-07-19T09:22:54.094Z,37.50
2018-07-19T09:27:49.916Z,37.70
2018-07-19T09:32:45.624Z,37.20
2018-07-19T09:37:40.740Z,36.10
2018-07-19T09:42:36.192Z,37.40
2018-07-19T09:47:31.230Z,37.40
2018-07-19T09:52:27.297Z,37.70
2018-07-19T09:57:22.649Z,40.20
2018-07-19T10:02:18.033Z,42.90
2018-07-19T10:07:13.148Z,41.60
2018-07-19T10:12:08.315Z,38.90
2018-07-19T10:22:07.340Z,35.20
2018-07-19T10:27:04.704Z,35.00
2018-07-19T10:32:06.525Z,35.30
2018-07-19T10:37:04.824Z,35.20
2018-07-19T10:42:01.851Z,38.40
2018-07-19T10:46:57.557Z,36.20
2018-07-19T10:56:46.869Z,37.20
2018-07-19T11:01:42.538Z,37.20
2018-07-19T11:06:36.970Z,40.20
2018-07-19T11:11:33.262Z,40.50
2018-07-19T11:16:28.537Z,38.00
2018-07-19T11:21:23.698Z,35.30
2018-07-19T11:26:19.200Z,32.90
2018-07-19T11:31:15.982Z,32.60
2018-07-19T11:36:13.202Z,32.30
2018-07-19T11:41:08.068Z,32.50
2018-07-19T11:46:05.569Z,31.90
2018-07-19T11:51:03.668Z,31.80
2018-07-19T12:00:56.050Z,29.90
2018-07-19T12:05:52.117Z,30.10
2018-07-19T12:10:47.446Z,30.60
2018-07-19T12:15:42.176Z,30.40
2018-07-19T12:20:38.161Z,30.70
2018-07-19T12:30:27.596Z,31.00
2018-07-19T12:35:22.146Z,30.80
2018-07-19T12:40:17.572Z,30.30
2018-07-19T12:45:12.071Z,30.10
2018-07-19T12:50:09.995Z,30.20
2018-07-19T13:00:01.350Z,29.90
2018-07-19T13:04:57.387Z,29.80
2018-07-19T13:09:55.078Z,30.10
2018-07-19T13:14:49.985Z,29.50
2018-07-19T13:19:46.221Z,28.70
2018-07-19T13:24:41.038Z,28.20
2018-07-19T13:29:36.152Z,27.70
2018-07-19T13:34:31.350Z,27.70
2018-07-19T13:39:26.586Z,27.90
2018-07-19T13:44:21.335Z,27.70
2018-07-19T13:49:17.132Z,27.30
2018-07-19T13:59:12.356Z,26.40
2018-07-19T14:04:07.300Z,26.80
2018-07-19T14:09:04.853Z,26.90
2018-07-19T14:14:00.107Z,27.00
2018-07-19T14:18:55.117Z,26.50
2018-07-19T14:23:49.762Z,26.80
2018-07-19T14:28:44.443Z,26.50
2018-07-19T14:33:41.489Z,27.00
2018-07-19T14:38:36.195Z,26.60
2018-07-19T14:43:31.164Z,26.30
2018-07-19T14:48:26.166Z,26.30
2018-07-19T14:58:16.221Z,26.60
2018-07-19T15:03:11.361Z,26.20
2018-07-19T15:08:07.054Z,26.10
2018-07-19T15:13:02.711Z,25.90
2018-07-19T15:17:57.972Z,25.90
2018-07-19T15:22:52.727Z,26.20
2018-07-19T15:27:48.904Z,26.30
2018-07-19T15:32:43.567Z,26.10
2018-07-19T15:37:38.826Z,25.80
2018-07-19T15:42:34.263Z,25.70
2018-07-19T15:47:29.271Z,25.60
2018-07-19T15:52:25.854Z,25.90
2018-07-19T15:57:21.054Z,26.20
2018-07-19T16:02:17.005Z,26.00
2018-07-19T16:07:12.433Z,25.80
2018-07-19T16:12:10.587Z,25.80
2018-07-19T16:17:07.137Z,25.30
2018-07-19T16:22:03.766Z,25.00
2018-07-19T16:31:53.669Z,25.00
2018-07-19T16:46:39.243Z,24.90
2018-07-19T16:51:34.546Z,24.50
2018-07-19T16:56:30.397Z,24.60
2018-07-19T17:01:25.340Z,24.60
2018-07-19T17:16:11.860Z,24.30
2018-07-19T17:21:07.147Z,24.30
2018-07-19T17:26:03.716Z,24.40
2018-07-19T17:30:59.606Z,24.30
2018-07-19T17:35:55.980Z,24.30
2018-07-19T17:40:51.341Z,24.30
2018-07-19T17:45:46.277Z,24.30
2018-07-19T17:50:41.519Z,24.20
2018-07-19T17:55:36.508Z,24.10
2018-07-19T18:00:32.478Z,24.00
2018-07-19T18:05:27.237Z,24.00
2018-07-19T18:10:24.150Z,23.80
2018-07-19T18:15:19.439Z,23.70
2018-07-19T18:20:14.656Z,23.60
2018-07-19T18:25:09.642Z,23.60
2018-07-19T18:30:08.468Z,23.50
2018-07-19T18:35:05.620Z,23.50
2018-07-19T18:44:55.853Z,23.20
2018-07-19T18:49:51.105Z,23.10
2018-07-19T18:54:45.763Z,23.00
2018-07-19T18:59:40.450Z,22.90
2018-07-19T19:04:35.246Z,22.80
2018-07-19T19:09:30.198Z,22.70
2018-07-19T19:14:26.691Z,22.60
2018-07-19T19:19:22.005Z,22.50
2018-07-19T19:24:17.119Z,22.40
2018-07-19T19:29:12.642Z,22.30
2018-07-19T19:34:08.271Z,22.20
2018-07-19T19:39:04.989Z,22.00
2018-07-19T19:43:59.460Z,21.90
2018-07-19T19:48:55.108Z,21.80
2018-07-19T19:53:50.587Z,21.70
2018-07-19T19:58:45.233Z,21.60
2018-07-19T20:03:39.803Z,21.40
2018-07-19T20:08:34.723Z,21.30
2018-07-19T20:13:29.527Z,21.20
2018-07-19T20:18:25.107Z,21.10
2018-07-19T20:23:20.001Z,21.00
2018-07-19T20:28:16.162Z,21.00
2018-07-19T20:33:12.081Z,20.90
2018-07-19T20:38:06.729Z,20.70
2018-07-19T20:43:02.650Z,20.60
2018-07-19T20:47:58.203Z,20.40
2018-07-19T20:52:52.720Z,20.30
2018-07-19T20:57:47.644Z,20.20
2018-07-19T21:02:42.171Z,20.10
2018-07-19T21:07:36.931Z,20.00
2018-07-19T21:12:32.221Z,19.90
2018-07-19T21:17:26.906Z,19.90
2018-07-19T21:22:22.333Z,19.70
2018-07-19T21:27:17.185Z,19.50
2018-07-19T21:32:12.901Z,19.40
2018-07-19T21:37:07.946Z,19.30
2018-07-19T21:42:05.281Z,19.20
2018-07-19T21:46:59.903Z,19.20
2018-07-19T21:51:54.411Z,19.10
2018-07-19T21:56:49.424Z,18.90
2018-07-19T22:01:48.755Z,18.90
2018-07-19T22:11:38.643Z,18.80
2018-07-19T22:16:33.926Z,18.80
2018-07-19T22:26:25.753Z,18.60
2018-07-19T22:31:20.628Z,18.50
2018-07-19T22:36:15.150Z,18.40
2018-07-19T22:41:09.688Z,18.30
2018-07-19T22:46:05.284Z,18.20
2018-07-19T22:51:00.006Z,18.10
2018-07-19T22:55:55.064Z,18.10
2018-07-19T23:00:49.548Z,18.00
2018-07-19T23:05:44.696Z,17.90
2018-07-19T23:10:39.590Z,17.80
2018-07-19T23:15:34.157Z,17.80
2018-07-19T23:20:28.932Z,17.80
2018-07-19T23:25:23.707Z,17.70
2018-07-19T23:30:19.528Z,17.70
2018-07-19T23:35:15.323Z,17.60
2018-07-19T23:40:14.170Z,17.60
2018-07-19T23:45:15.375Z,17.40
2018-07-19T23:55:06.913Z,17.30
